createdAt,value
2018-01-14T10:07:29.920Z,74.20
2018-01-14T10:09:57.455Z,73.30
2018-01-14T10:12:25.004Z,73.50
2018-01-14T10:14:52.543Z,73.20
2018-01-14T10:17:20.072Z,73.70
2018-01-14T10:19:47.628Z,73.20
2018-01-14T10:22:15.171Z,72.80
2018-01-14T10:24:42.800Z,73.00
2018-01-14T10:27:10.374Z,72.80
2018-01-14T10:29:37.910Z,72.70
2018-01-14T10:32:05.462Z,72.40
2018-01-14T10:34:33.128Z,72.10
2018-01-14T10:37:00.654Z,72.40
2018-01-14T10:39:28.188Z,72.30
2018-01-14T10:41:55.738Z,72.40
2018-01-14T10:44:23.280Z,72.50
2018-01-14T10:46:50.816Z,72.70
2018-01-14T10:49:19.216Z,72.80
2018-01-14T10:51:46.748Z,72.80
2018-01-14T10:54:15.064Z,72.80
2018-01-14T10:56:42.605Z,72.70
2018-01-14T10:59:11.098Z,72.80
2018-01-14T11:01:38.640Z,72.80
2018-01-14T11:04:06.191Z,73.00
2018-01-14T11:06:34.591Z,73.10
2018-01-14T11:09:04.699Z,73.00
2018-01-14T11:11:30.631Z,73.20
2018-01-14T11:13:58.783Z,73.20
2018-01-14T11:16:27.076Z,73.10
2018-01-14T11:18:54.614Z,73.10
2018-01-14T11:21:29.394Z,72.80
2018-01-14T11:23:56.957Z,72.50
2018-01-14T11:26:24.512Z,72.90
2018-01-14T11:28:52.968Z,73.20
2018-01-14T11:31:20.516Z,72.80
2018-01-14T11:33:48.059Z,72.60
2018-01-14T11:36:15.603Z,72.20
2018-01-14T11:38:43.134Z,72.00
2018-01-14T11:41:10.727Z,72.30
2018-01-14T11:43:38.306Z,72.50
2018-01-14T11:46:05.865Z,72.30
2018-01-14T11:48:37.507Z,71.70
2018-01-14T11:51:05.899Z,71.90
2018-01-14T11:53:33.477Z,71.90
2018-01-14T11:56:02.061Z,71.90
2018-01-14T11:58:29.626Z,71.70
2018-01-14T12:00:57.175Z,71.60
2018-01-14T12:03:24.724Z,71.70
2018-01-14T12:05:52.256Z,71.20
2018-01-14T12:08:19.804Z,71.50
2018-01-14T12:10:47.357Z,71.20
2018-01-14T12:13:14.894Z,71.00
2018-01-14T12:15:42.437Z,71.20
2018-01-14T12:18:09.989Z,71.30
2018-01-14T12:20:37.549Z,71.20
2018-01-14T12:23:05.108Z,70.80
2018-01-14T12:25:32.643Z,70.40
2018-01-14T12:28:00.192Z,70.50
2018-01-14T12:30:27.756Z,71.20
2018-01-14T12:33:05.303Z,70.70
2018-01-14T12:35:32.860Z,70.80
2018-01-14T12:38:00.393Z,71.00
2018-01-14T12:40:27.980Z,70.60
2018-01-14T12:42:55.562Z,70.80
2018-01-14T12:45:23.145Z,70.40
2018-01-14T12:47:50.675Z,70.40
2018-01-14T12:50:18.208Z,70.60
2018-01-14T12:52:45.757Z,70.80
2018-01-14T12:55:13.296Z,70.80
2018-01-14T12:57:41.615Z,70.50
2018-01-14T13:00:09.147Z,70.50
2018-01-14T13:02:36.683Z,70.50
2018-01-14T13:05:05.046Z,70.80
2018-01-14T13:07:33.556Z,70.80
2018-01-14T13:10:01.863Z,70.90
2018-01-14T13:12:29.416Z,70.80
2018-01-14T13:14:59.300Z,70.80
2018-01-14T13:17:37.365Z,70.40
2018-01-14T13:20:10.239Z,70.40
2018-01-14T13:22:47.158Z,70.30
2018-01-14T13:25:25.864Z,70.20
2018-01-14T13:32:42.782Z,69.50
2018-01-14T13:35:19.709Z,70.20
2018-01-14T13:37:58.584Z,69.40
2018-01-14T13:40:36.593Z,69.40
2018-01-14T13:43:16.037Z,69.30
2018-01-14T13:45:54.282Z,69.30
2018-01-14T13:48:33.230Z,69.60
2018-01-14T13:51:03.691Z,69.40
2018-01-14T13:53:31.245Z,69.50
2018-01-14T13:55:58.772Z,69.50
2018-01-14T13:58:27.088Z,70.00
2018-01-14T14:00:54.628Z,69.90
2018-01-14T14:03:22.165Z,69.60
2018-01-14T14:05:50.776Z,70.00
2018-01-14T14:08:18.332Z,70.00
2018-01-14T14:10:45.870Z,70.00
2018-01-14T14:13:14.187Z,69.60
2018-01-14T14:15:41.731Z,69.60
2018-01-14T14:18:09.288Z,69.60
2018-01-14T14:20:36.815Z,69.70
2018-01-14T14:23:05.158Z,68.90
2018-01-14T14:25:32.707Z,68.90
2018-01-14T14:28:00.238Z,68.90
2018-01-14T14:30:27.779Z,69.10
2018-01-14T14:32:56.094Z,68.30
2018-01-14T14:35:24.404Z,68.30
2018-01-14T14:37:51.934Z,68.20
2018-01-14T14:40:19.487Z,68.20
2018-01-14T14:42:47.020Z,68.00
2018-01-14T14:45:14.601Z,68.00
2018-01-14T14:47:42.151Z,68.20
2018-01-14T14:50:12.657Z,67.80
2018-01-14T14:52:51.714Z,67.80
2018-01-14T14:55:33.274Z,67.50
2018-01-14T14:58:05.521Z,67.20
2018-01-14T15:00:33.195Z,67.00
2018-01-14T15:03:06.247Z,66.60
2018-01-14T15:05:46.563Z,67.00
2018-01-14T15:08:14.111Z,67.00
2018-01-14T15:10:42.477Z,66.90
2018-01-14T15:13:10.767Z,66.80
2018-01-14T15:15:39.113Z,66.90
2018-01-14T15:18:06.640Z,66.90
2018-01-14T15:20:34.191Z,66.80
2018-01-14T15:23:01.728Z,67.50
2018-01-14T15:25:30.059Z,66.90
2018-01-14T15:28:09.222Z,66.90
2018-01-14T15:30:36.779Z,66.70
2018-01-14T15:33:16.672Z,65.10
2018-01-14T15:35:53.670Z,65.20
2018-01-14T15:38:35.732Z,65.10
2018-01-14T15:41:16.033Z,65.70
2018-01-14T15:43:43.607Z,65.30
2018-01-14T15:46:11.282Z,65.70
2018-01-14T15:48:40.320Z,65.40
2018-01-14T15:51:07.867Z,65.90
2018-01-14T15:53:36.364Z,65.80
2018-01-14T15:56:03.895Z,65.80
2018-01-14T15:58:32.215Z,65.80
2018-01-14T16:00:59.771Z,65.80
2018-01-14T16:03:41.136Z,66.20
2018-01-14T16:06:09.089Z,65.80
2018-01-14T16:08:36.679Z,64.80
2018-01-14T16:11:04.891Z,64.70
2018-01-14T16:13:32.432Z,65.10
2018-01-14T16:16:00.020Z,65.00
2018-01-14T16:18:28.346Z,65.60
2018-01-14T16:20:55.895Z,65.50
2018-01-14T16:24:12.123Z,65.60
2018-01-14T16:26:39.687Z,65.40
2018-01-14T16:29:07.276Z,64.60
2018-01-14T16:31:34.854Z,64.30
2018-01-14T16:34:03.398Z,64.00
2018-01-14T16:36:30.971Z,64.00
2018-01-14T16:38:59.595Z,64.40
2018-01-14T16:41:29.809Z,64.70
2018-01-14T16:44:00.714Z,64.70
2018-01-14T16:46:36.261Z,65.00
2018-01-14T16:49:18.407Z,64.90
2018-01-14T16:51:48.992Z,65.20
2018-01-14T16:54:18.307Z,65.50
2018-01-14T16:56:49.693Z,65.40
2018-01-14T16:59:19.086Z,65.70
2018-01-14T17:01:48.658Z,65.70
2018-01-14T17:04:21.564Z,65.20
2018-01-14T17:06:49.992Z,65.80
2018-01-14T17:09:19.220Z,65.80
2018-01-14T17:11:48.958Z,66.10
2018-01-14T17:14:17.827Z,66.00
2018-01-14T17:19:22.814Z,66.70
2018-01-14T17:21:57.514Z,66.70
2018-01-14T17:24:37.904Z,67.00
2018-01-14T17:27:19.476Z,66.90
2018-01-14T17:29:52.948Z,67.50
2018-01-14T17:32:24.428Z,67.50
2018-01-14T17:34:55.736Z,67.80
2018-01-14T17:37:24.566Z,68.10
2018-01-14T17:40:00.591Z,68.00
2018-01-14T17:42:32.899Z,68.20
2018-01-14T17:45:00.565Z,68.30
2018-01-14T17:47:28.166Z,68.20
2018-01-14T17:49:55.954Z,68.30
2018-01-14T17:52:24.930Z,68.40
2018-01-14T17:57:35.257Z,68.90
2018-01-14T18:00:04.683Z,69.40
2018-01-14T18:02:41.000Z,69.80
2018-01-14T18:05:13.770Z,69.80
2018-01-14T18:07:43.420Z,69.80
2018-01-14T18:10:14.429Z,70.20
2018-01-14T18:12:44.257Z,70.60
2018-01-14T18:15:14.149Z,71.00
2018-01-14T18:17:49.857Z,71.40
2018-01-14T18:20:20.550Z,71.40
2018-01-14T18:22:56.318Z,71.70
2018-01-14T18:28:06.280Z,72.00
2018-01-14T18:30:41.686Z,72.30
2018-01-14T18:33:12.914Z,72.80
2018-01-14T18:35:44.095Z,72.90
2018-01-14T18:38:27.265Z,73.20
2018-01-14T18:40:56.401Z,73.30
2018-01-14T18:43:24.224Z,73.50
2018-01-14T18:46:18.158Z,74.00
2018-01-14T18:48:47.366Z,74.30
2018-01-14T18:51:22.487Z,74.20
2018-01-14T18:53:50.939Z,74.40
2018-01-14T18:56:18.562Z,74.40
2018-01-14T18:58:46.411Z,74.40
2018-01-14T19:01:14.048Z,74.70
2018-01-14T19:03:41.663Z,74.70
2018-01-14T19:06:09.223Z,75.00
2018-01-14T19:08:36.817Z,74.90
2018-01-14T19:11:04.696Z,75.10
2018-01-14T19:13:32.347Z,75.00
2018-01-14T19:15:59.978Z,75.30
2018-01-14T19:18:27.599Z,75.40
2018-01-14T19:23:32.263Z,75.50
2018-01-14T19:25:59.888Z,75.60
2018-01-14T19:28:28.376Z,75.60
2018-01-14T19:30:56.100Z,75.80
2018-01-14T19:33:34.971Z,76.10
2018-01-14T19:36:10.715Z,76.70
2018-01-14T19:38:50.717Z,76.00
2018-01-14T19:41:21.572Z,75.80
2018-01-14T19:44:00.800Z,75.90
2018-01-14T19:46:38.035Z,75.90
2018-01-14T19:49:17.300Z,75.90
2018-01-14T19:51:57.349Z,76.10
2018-01-14T19:54:30.612Z,76.30
2018-01-14T19:59:54.178Z,76.10
2018-01-14T20:02:32.936Z,76.30
2018-01-14T20:05:14.294Z,76.30
2018-01-14T20:07:55.732Z,75.70
2018-01-14T20:10:36.282Z,75.70
2018-01-14T20:13:10.045Z,76.10
2018-01-14T20:15:49.802Z,76.70
2018-01-14T20:18:33.351Z,76.50
2018-01-14T20:21:14.653Z,76.40
2018-01-14T20:23:49.792Z,76.60
2018-01-14T20:26:33.333Z,76.70
2018-01-14T20:29:01.416Z,77.20
2018-01-14T20:31:36.442Z,77.10
2018-01-14T20:34:15.690Z,77.20
2018-01-14T20:36:54.172Z,77.40
2018-01-14T20:39:33.927Z,77.30
2018-01-14T20:42:06.546Z,77.40
2018-01-14T20:44:51.143Z,77.50
2018-01-14T20:47:30.479Z,77.70
2018-01-14T20:50:07.554Z,77.70
2018-01-14T20:52:48.403Z,77.70
2018-01-14T20:55:24.628Z,77.60
2018-01-14T20:58:01.348Z,77.70
2018-01-14T21:00:41.409Z,77.80
2018-01-14T21:03:14.366Z,77.70
2018-01-14T21:05:44.715Z,77.60
2018-01-14T21:08:23.954Z,77.70
2018-01-14T21:11:03.150Z,77.50
2018-01-14T21:13:43.829Z,77.50
2018-01-14T21:16:20.387Z,77.90
2018-01-14T21:18:59.165Z,77.90
2018-01-14T21:21:37.869Z,78.10
2018-01-14T21:24:11.785Z,77.70
2018-01-14T21:26:51.527Z,77.40
2018-01-14T21:29:30.562Z,77.70
2018-01-14T21:32:03.398Z,77.90
2018-01-14T21:34:38.809Z,77.90
2018-01-14T21:37:22.091Z,77.60
2018-01-14T21:39:59.237Z,77.80
2018-01-14T21:48:02.871Z,77.30
2018-01-14T21:50:36.009Z,77.90
2018-01-14T21:53:15.787Z,77.70
2018-01-14T21:55:55.076Z,77.60
2018-01-14T21:58:35.343Z,77.50
2018-01-14T22:01:14.947Z,77.60
2018-01-14T22:03:47.256Z,77.90
2018-01-14T22:06:29.064Z,77.80
2018-01-14T22:09:08.495Z,76.90
2018-01-14T22:11:47.417Z,76.90
2018-01-14T22:14:23.157Z,77.40
2018-01-14T22:16:57.681Z,77.50
2018-01-14T22:19:31.548Z,77.50
2018-01-14T22:22:14.290Z,77.60
2018-01-14T22:27:33.277Z,78.30
2018-01-14T22:30:08.221Z,77.70
2018-01-14T22:32:43.159Z,77.60
2018-01-14T22:35:18.949Z,77.70
2018-01-14T22:37:57.145Z,77.70
2018-01-14T22:40:36.819Z,77.30
2018-01-14T22:43:15.977Z,77.80
2018-01-14T22:45:49.383Z,77.40
2018-01-14T22:48:24.221Z,77.30
2018-01-14T22:51:01.000Z,77.20
2018-01-14T22:53:42.031Z,77.20
2018-01-14T22:56:17.154Z,77.20
2018-01-14T22:58:54.825Z,77.10
2018-01-14T23:01:28.825Z,76.90
2018-01-14T23:04:06.579Z,76.90
2018-01-14T23:06:45.427Z,76.90
2018-01-14T23:09:20.883Z,76.90
2018-01-14T23:11:56.335Z,76.30
2018-01-14T23:14:36.301Z,76.30
2018-01-14T23:17:17.935Z,76.20
2018-01-14T23:19:52.920Z,76.20
2018-01-14T23:22:36.097Z,75.80
2018-01-14T23:25:16.206Z,75.80
2018-01-14T23:27:58.170Z,76.00
2018-01-14T23:30:33.835Z,76.00
2018-01-14T23:33:11.935Z,75.90
2018-01-14T23:35:55.060Z,76.10
2018-01-14T23:38:34.868Z,76.10
2018-01-14T23:41:13.790Z,76.10
2018-01-14T23:43:48.827Z,75.90
2018-01-14T23:46:26.068Z,76.00
2018-01-14T23:48:57.055Z,75.70
2018-01-14T23:51:35.612Z,75.60
2018-01-14T23:54:13.922Z,75.90
2018-01-14T23:56:41.479Z,76.00
2018-01-14T23:59:09.040Z,75.90
